Time;durP1;ratioP1;P1;durP2;ratioP2;P2;SDS_P1;SDS_P2;PMS_P1;PMS_P2;Temp;Humidity;BMP_temperature;BMP_pressure;BME280_temperature;BME280_humidity;BME280_pressure;Samples;Min_cycle;Max_cycle;Signal;HPM_P1;HPM_P2
2022/07/08 00:01:52;;;;;;;7.07;6.47;;;;;;;21.79;71.83;100782.00;4997203;28;102418;-47
2022/07/08 00:04:22;;;;;;;7.63;7.03;;;;;;;21.79;71.83;100786.75;4996530;28;102441;-46
2022/07/08 00:06:49;;;;;;;7.32;6.72;;;;;;;21.79;71.74;100779.22;4998452;28;102267;-48
2022/07/08 00:09:18;;;;;;;7.00;6.50;;;;;;;21.79;71.75;100782.00;4979946;28;104008;-48
2022/07/08 00:11:44;;;;;;;7.93;6.40;;;;;;;21.80;71.97;100774.50;4977407;28;102043;-50
2022/07/08 00:14:12;;;;;;;7.20;6.60;;;;;;;21.78;71.85;100780.41;4994013;28;102218;-46
2022/07/08 00:16:40;;;;;;;6.60;6.00;;;;;;;21.78;71.76;100774.84;4994275;28;102198;-46
2022/07/08 00:19:08;;;;;;;7.07;6.47;;;;;;;21.78;71.77;100769.31;4996174;28;103815;-47
2022/07/08 00:21:36;;;;;;;6.28;5.78;;;;;;;21.78;71.79;100774.03;4997304;28;102418;-47
2022/07/08 00:24:02;;;;;;;6.87;6.17;;;;;;;21.78;71.57;100771.25;4995221;28;102020;-48
2022/07/08 00:26:29;;;;;;;7.22;6.63;;;;;;;21.77;71.79;100764.91;4980281;28;101925;-48
2022/07/08 00:28:56;;;;;;;7.03;6.53;;;;;;;21.78;72.00;100766.53;5005695;28;103937;-47
2022/07/08 00:31:23;;;;;;;6.72;6.13;;;;;;;21.78;nan;100771.25;4997122;28;102191;-46
2022/07/08 00:33:49;;;;;;;6.85;6.35;;;;;;;21.77;71.82;100767.69;4995991;28;102394;-48
2022/07/08 00:36:16;;;;;;;8.00;7.22;;;;;;;21.78;71.97;100766.53;4997802;28;102081;-47
2022/07/08 00:38:44;;;;;;;7.10;6.50;;;;;;;21.77;71.76;100762.13;4995957;28;103717;-47
2022/07/08 00:41:11;;;;;;;8.33;6.90;;;;;;;21.77;71.86;100767.69;4997446;28;102254;-47
2022/07/08 00:43:40;;;;;;;7.30;6.70;;;;;;;21.78;71.78;100757.41;4993666;28;102738;-47
2022/07/08 00:46:07;;;;;;;6.97;6.38;;;;;;;21.78;71.78;100757.41;4997732;28;102255;-47
2022/07/08 00:48:34;;;;;;;6.73;6.23;;;;;;;21.77;72.12;100755.78;4986951;28;103899;-49
2022/07/08 00:51:05;;;;;;;7.53;6.90;;;;;;;21.77;71.96;100756.59;4984757;28;102473;-47
2022/07/08 00:53:33;;;;;;;6.47;5.97;;;;;;;21.76;71.83;100755.00;4995019;28;102552;-50
2022/07/08 00:56:02;;;;;;;6.93;6.43;;;;;;;21.77;71.50;100758.56;4979820;28;102498;-47
2022/07/08 00:58:31;;;;;;;7.15;6.35;;;;;;;21.76;72.05;100757.75;4980152;28;108337;-47
2022/07/08 01:00:58;;;;;;;6.97;6.38;;;;;;;21.77;71.80;100767.69;4996431;28;102265;-47
2022/07/08 01:03:24;;;;;;;7.45;6.75;;;;;;;21.76;72.31;100766.06;4990500;28;102182;-48
2022/07/08 01:05:51;;;;;;;6.28;5.78;;;;;;;21.76;71.89;100760.53;4977429;28;102112;-47
2022/07/08 01:08:17;;;;;;;7.03;6.32;;;;;;;21.76;71.82;100762.50;4988636;28;103908;-47
2022/07/08 01:10:44;;;;;;;6.93;6.35;;;;;;;21.75;71.90;100755.34;4997148;28;102477;-49
2022/07/08 01:13:12;;;;;;;6.50;6.00;;;;;;;21.76;71.78;100762.50;4996163;28;102033;-46
2022/07/08 01:15:40;;;;;;;6.55;6.05;;;;;;;21.75;71.86;100764.47;4994044;28;102611;-52
2022/07/08 01:18:07;;;;;;;6.97;6.38;;;;;;;21.76;71.88;100766.06;4976264;28;104035;-47
2022/07/08 01:20:40;;;;;;;6.47;5.97;;;;;;;21.75;72.13;100764.47;4994231;28;102468;-47
2022/07/08 01:23:07;;;;;;;7.20;6.60;;;;;;;21.74;71.96;100768.38;4992881;28;102039;-48
2022/07/08 01:25:33;;;;;;;6.78;6.18;;;;;;;21.75;71.82;100770.00;4977690;28;102224;-47
2022/07/08 01:28:00;;;;;;;6.70;6.10;;;;;;;21.76;71.90;100768.84;4984231;28;103664;-47
2022/07/08 01:30:27;;;;;;;6.30;5.90;;;;;;;21.74;71.79;100768.38;4994489;28;102201;-48
2022/07/08 01:32:54;;;;;;;6.70;6.20;;;;;;;21.75;72.01;100775.53;4988937;28;102186;-50
2022/07/08 01:35:21;;;;;;;6.65;6.05;;;;;;;21.75;71.90;100774.75;4995912;28;102397;-49
2022/07/08 01:37:48;;;;;;;6.65;6.15;;;;;;;21.74;71.80;100773.91;4994696;28;104082;-50
2022/07/08 01:40:15;;;;;;;6.57;6.07;;;;;;;21.74;72.13;100785.00;4991543;28;102239;-47
2022/07/08 01:42:42;;;;;;;6.63;6.05;;;;;;;21.74;72.17;100779.44;4975531;28;102265;-48
2022/07/08 01:45:09;;;;;;;6.05;5.55;;;;;;;21.73;72.01;100777.84;4976701;28;102265;-47
2022/07/08 01:47:37;;;;;;;7.00;6.40;;;;;;;21.73;71.92;100786.16;4975171;28;104053;-47
2022/07/08 01:50:05;;;;;;;6.05;5.55;;;;;;;21.74;71.91;100789.72;4990205;28;102462;-47
2022/07/08 01:52:33;;;;;;;6.80;6.30;;;;;;;21.74;72.04;100787.75;4975174;28;101943;-48
2022/07/08 01:55:01;;;;;;;6.10;5.60;;;;;;;21.73;71.93;100788.91;4976135;28;102074;-49
2022/07/08 01:57:27;;;;;;;5.97;5.47;;;;;;;21.73;72.23;100794.47;4981997;28;103955;-47
2022/07/08 01:59:54;;;;;;;6.68;6.18;;;;;;;21.74;72.34;100789.72;4994334;28;102516;-47
2022/07/08 02:02:21;;;;;;;6.95;6.38;;;;;;;21.74;71.96;100795.25;4993856;28;102215;-47
2022/07/08 02:04:49;;;;;;;6.43;5.93;;;;;;;21.74;72.29;100801.59;4996577;28;102471;-47
2022/07/08 02:07:16;;;;;;;6.15;5.65;;;;;;;21.72;71.96;100790.09;4993896;28;103949;-47
2022/07/08 02:09:43;;;;;;;5.80;5.40;;;;;;;21.73;72.08;100800.00;4994880;28;102176;-47
2022/07/08 02:12:20;;;;;;;5.63;5.22;;;;;;;21.72;72.00;100797.59;4995386;28;102462;-46
2022/07/08 02:14:48;;;;;;;6.22;5.78;;;;;;;21.72;72.21;100801.16;4995853;28;102535;-49
2022/07/08 02:17:15;;;;;;;6.18;5.68;;;;;;;21.72;71.99;100803.94;4995200;28;103943;-48
2022/07/08 02:19:52;;;;;;;6.03;5.53;;;;;;;21.73;71.97;100802.78;4994712;28;102234;-47
2022/07/08 02:22:19;;;;;;;6.45;5.85;;;;;;;21.71;71.94;100807.88;4995175;28;102282;-47
2022/07/08 02:24:47;;;;;;;5.72;5.32;;;;;;;21.73;72.06;100815.81;4995827;28;102269;-49
2022/07/08 02:27:15;;;;;;;5.72;5.30;;;;;;;21.73;71.99;100816.63;4999165;28;103949;-47
2022/07/08 02:29:42;;;;;;;5.73;5.33;;;;;;;21.72;72.08;100820.56;5001812;28;105942;-51
2022/07/08 02:32:09;;;;;;;5.80;5.30;;;;;;;21.72;71.89;100812.25;4999282;28;102238;-49
2022/07/08 02:34:36;;;;;;;6.32;5.72;;;;;;;21.72;72.05;100814.22;4999282;28;102177;-49
2022/07/08 02:37:06;;;;;;;5.50;5.00;;;;;;;21.72;72.03;100820.56;4997761;28;104064;-47
2022/07/08 02:39:34;;;;;;;6.03;5.53;;;;;;;21.71;71.68;100813.41;4997330;28;102048;-48
2022/07/08 02:42:00;;;;;;;5.78;5.38;;;;;;;21.72;72.12;100817.78;4981431;28;102239;-48
2022/07/08 02:44:29;;;;;;;5.43;5.03;;;;;;;21.72;72.04;100820.56;4978752;28;102455;-48
2022/07/08 02:46:55;;;;;;;5.95;5.45;;;;;;;21.72;72.24;100814.22;4982777;28;104066;-47
2022/07/08 02:49:22;;;;;;;5.93;5.32;;;;;;;21.72;72.20;100820.56;4996613;28;102300;-47
2022/07/08 02:51:49;;;;;;;6.03;5.60;;;;;;;21.72;72.22;100823.31;4998592;28;102239;-50
2022/07/08 02:54:15;;;;;;;6.15;5.65;;;;;;;21.72;72.12;100815.00;4985326;28;102738;-47
2022/07/08 02:56:42;;;;;;;6.75;6.25;;;;;;;21.72;72.03;100828.84;4977985;28;104112;-50
2022/07/08 02:59:08;;;;;;;6.00;5.50;;;;;;;21.72;72.27;100820.56;4990036;28;102521;-48
2022/07/08 03:01:36;;;;;;;5.78;5.28;;;;;;;21.71;72.23;100824.47;4998404;28;102414;-46
2022/07/08 03:04:03;;;;;;;5.50;5.10;;;;;;;21.72;71.97;100820.56;4990809;28;104070;-47
2022/07/08 03:06:30;;;;;;;5.60;5.10;;;;;;;21.72;71.99;100820.56;4997924;28;103876;-50
2022/07/08 03:08:57;;;;;;;5.63;5.22;;;;;;;21.72;72.21;100826.09;4997755;28;102146;-48
2022/07/08 03:11:24;;;;;;;5.63;5.22;;;;;;;21.72;72.15;100826.09;4998151;28;102279;-49
2022/07/08 03:13:51;;;;;;;5.65;5.15;;;;;;;21.72;71.88;100831.63;4980533;28;102254;-48
2022/07/08 03:16:17;;;;;;;5.30;4.90;;;;;;;21.72;72.08;100834.41;4960447;28;104225;-48
2022/07/08 03:18:45;;;;;;;5.35;4.95;;;;;;;21.74;71.67;100834.03;4994850;28;102331;-48
2022/07/08 03:21:12;;;;;;;5.80;5.40;;;;;;;21.74;71.79;100828.50;4980701;28;102277;-48
2022/07/08 03:23:38;;;;;;;6.28;5.72;;;;;;;21.74;71.87;100828.50;4993276;28;102407;-50
2022/07/08 03:26:05;;;;;;;6.00;5.50;;;;;;;21.74;71.80;100829.31;4987898;28;103948;-48
2022/07/08 03:28:32;;;;;;;6.00;5.50;;;;;;;21.75;71.90;100825.41;4991795;28;102326;-49
2022/07/08 03:30:59;;;;;;;5.93;5.43;;;;;;;21.75;71.87;100828.19;4989499;28;102349;-56
2022/07/08 03:33:25;;;;;;;5.28;4.88;;;;;;;21.75;71.63;100830.94;4992585;28;102154;-47
2022/07/08 03:35:53;;;;;;;6.05;5.55;;;;;;;21.74;71.70;100832.06;4995857;28;103901;-49
2022/07/08 03:38:20;;;;;;;5.50;5.10;;;;;;;21.75;71.82;100833.72;4994391;28;102214;-50
2022/07/08 03:43:32;;;;;;;5.47;5.07;;;;;;;21.75;72.04;100836.50;4988337;28;102359;-48
2022/07/08 03:45:58;;;;;;;5.20;4.80;;;;;;;21.74;71.99;100826.53;4992098;28;104150;-47
2022/07/08 03:48:26;;;;;;;5.32;4.93;;;;;;;21.74;71.93;100831.28;4993940;28;102657;-49
2022/07/08 03:50:53;;;;;;;5.45;5.05;;;;;;;21.74;71.99;100832.06;4996995;28;101990;-48
2022/07/08 03:53:20;;;;;;;5.57;5.17;;;;;;;21.73;72.00;100838.78;4998816;28;102875;-47
2022/07/08 03:55:47;;;;;;;5.50;5.10;;;;;;;21.73;72.08;100824.94;4996577;28;103971;-49
2022/07/08 03:58:14;;;;;;;5.60;5.20;;;;;;;21.73;72.08;100833.25;4995681;28;102332;-48
2022/07/08 04:00:41;;;;;;;6.15;5.65;;;;;;;21.73;71.78;100827.69;4996833;28;102424;-47
2022/07/08 04:03:07;;;;;;;5.88;5.47;;;;;;;21.74;72.01;100834.03;4997190;28;102446;-50
2022/07/08 04:05:34;;;;;;;5.43;5.03;;;;;;;21.73;71.85;100833.25;4996378;28;103999;-48
2022/07/08 04:08:03;;;;;;;5.22;4.82;;;;;;;21.74;71.99;100832.06;4997493;28;102387;-51
2022/07/08 04:10:29;;;;;;;5.28;4.88;;;;;;;21.74;71.78;100832.06;4997028;28;102105;-49
2022/07/08 04:12:56;;;;;;;5.30;4.90;;;;;;;21.75;71.74;100835.69;4997293;28;102170;-49
2022/07/08 04:15:23;;;;;;;5.07;4.70;;;;;;;21.76;71.87;100831.75;4997024;28;103899;-48
2022/07/08 04:17:50;;;;;;;5.65;5.22;;;;;;;21.77;71.73;100827.81;4997384;28;102016;-47
2022/07/08 04:20:17;;;;;;;5.57;5.18;;;;;;;21.76;71.79;100829.78;4996684;28;102733;-47
2022/07/08 04:22:43;;;;;;;5.30;5.00;;;;;;;21.76;71.67;100829.78;4996317;28;102260;-47
2022/07/08 04:25:12;;;;;;;5.75;5.35;;;;;;;21.78;71.68;100823.88;4981367;28;104003;-47
2022/07/08 04:27:39;;;;;;;5.57;5.10;;;;;;;21.78;71.31;100830.25;4992584;28;102171;-47
2022/07/08 04:30:07;;;;;;;5.40;5.00;;;;;;;21.80;71.37;100839.03;4996510;28;102035;-47
2022/07/08 04:32:33;;;;;;;6.00;5.28;;;;;;;21.79;71.34;100837.41;4993716;28;102204;-48
2022/07/08 04:35:00;;;;;;;5.60;5.20;;;;;;;21.80;71.34;100841.78;4976188;28;104107;-47
2022/07/08 04:37:27;;;;;;;5.47;4.97;;;;;;;21.80;71.51;100850.09;4995351;28;101978;-47
2022/07/08 04:39:54;;;;;;;5.70;5.20;;;;;;;21.82;71.33;100845.03;4995587;28;102104;-50
2022/07/08 04:42:22;;;;;;;5.60;5.20;;;;;;;21.82;71.43;100845.03;4996323;28;102244;-46
2022/07/08 04:44:49;;;;;;;5.32;4.82;;;;;;;21.83;71.44;100837.53;4990655;28;103930;-47
2022/07/08 04:47:15;;;;;;;5.65;5.20;;;;;;;21.86;71.55;100841.59;4991863;28;102013;-47
2022/07/08 04:49:42;;;;;;;5.50;5.05;;;;;;;21.82;71.37;100836.72;5015490;28;102140;-47
2022/07/08 04:52:08;;;;;;;5.53;5.13;;;;;;;21.82;71.46;100836.72;5009104;28;102363;-46
2022/07/08 04:54:38;;;;;;;5.97;5.57;;;;;;;21.82;71.43;100831.19;5006988;28;103801;-47
2022/07/08 04:57:07;;;;;;;5.40;5.00;;;;;;;21.83;71.54;100827.25;4985651;28;102289;-47
2022/07/08 04:59:36;;;;;;;5.75;5.35;;;;;;;21.84;71.42;100833.59;4976170;28;102349;-48
2022/07/08 05:02:03;;;;;;;5.63;5.23;;;;;;;21.84;71.67;100831.63;4991587;28;102506;-49
2022/07/08 05:04:30;;;;;;;5.68;5.28;;;;;;;21.84;71.49;100831.63;4995327;28;104075;-48
2022/07/08 05:06:56;;;;;;;5.50;5.10;;;;;;;21.87;71.36;100821.03;4992266;28;102437;-47
2022/07/08 05:09:23;;;;;;;5.50;5.10;;;;;;;21.87;71.32;100832.91;4976354;28;102297;-47
2022/07/08 05:11:50;;;;;;;5.95;5.35;;;;;;;21.87;71.31;100832.09;4977476;28;102249;-49
2022/07/08 05:14:17;;;;;;;5.47;5.07;;;;;;;21.88;71.35;100830.94;4975365;28;104006;-46
2022/07/08 05:16:45;;;;;;;5.82;5.43;;;;;;;21.90;71.24;100831.44;4981475;28;101977;-50
2022/07/08 05:19:11;;;;;;;6.13;5.53;;;;;;;21.90;71.26;100836.97;4984323;28;101866;-49
2022/07/08 05:21:38;;;;;;;5.88;5.47;;;;;;;21.92;71.23;100842.94;4982254;28;102141;-49
2022/07/08 05:24:06;;;;;;;5.85;5.35;;;;;;;21.94;71.37;100840.66;4995241;28;103968;-49
2022/07/08 05:26:33;;;;;;;5.38;4.97;;;;;;;21.93;71.32;100842.63;4994877;28;102341;-47
2022/07/08 05:29:00;;;;;;;5.80;5.35;;;;;;;21.95;70.97;100833.97;4995270;28;102280;-48
2022/07/08 05:31:27;;;;;;;6.35;5.85;;;;;;;21.96;71.12;100830.03;4996967;28;102453;-49
2022/07/08 05:33:55;;;;;;;6.18;5.68;;;;;;;21.97;70.96;100831.66;4987195;28;103788;-49
2022/07/08 05:36:22;;;;;;;6.07;5.47;;;;;;;21.99;71.16;100834.88;4992835;28;102549;-47
2022/07/08 05:38:49;;;;;;;6.00;5.50;;;;;;;22.01;70.97;100843.66;4994084;28;102425;-46
2022/07/08 05:41:16;;;;;;;6.32;5.80;;;;;;;22.02;70.97;100840.53;4981897;28;102308;-47
2022/07/08 05:43:43;;;;;;;5.95;5.32;;;;;;;22.03;71.06;100836.63;4975361;28;104004;-47
2022/07/08 05:46:10;;;;;;;6.32;5.82;;;;;;;22.04;70.87;100837.44;4976201;28;102076;-48
2022/07/08 05:48:39;;;;;;;6.13;5.63;;;;;;;22.05;70.77;100827.97;4986627;28;102115;-47
2022/07/08 05:51:07;;;;;;;6.38;5.88;;;;;;;22.06;70.67;100829.56;4976910;28;102135;-48
2022/07/08 05:53:34;;;;;;;6.30;5.80;;;;;;;22.07;70.71;100825.66;4975008;28;103981;-48
2022/07/08 05:56:00;;;;;;;6.13;5.72;;;;;;;22.08;70.90;100824.50;4974846;28;101983;-48
2022/07/08 05:58:27;;;;;;;6.88;6.38;;;;;;;22.09;70.92;100826.09;4991048;28;102735;-47
2022/07/08 06:00:53;;;;;;;6.20;5.70;;;;;;;22.10;70.69;100827.72;4995987;28;102182;-47
2022/07/08 06:03:20;;;;;;;6.60;6.10;;;;;;;22.13;70.91;100829.81;4998368;28;103827;-49
2022/07/08 06:05:47;;;;;;;6.10;5.70;;;;;;;22.13;70.69;100832.56;4998513;28;102232;-46
2022/07/08 06:08:15;;;;;;;6.53;5.93;;;;;;;22.15;70.65;100830.31;4981923;28;102312;-47
2022/07/08 06:10:45;;;;;;;6.30;5.80;;;;;;;22.16;70.72;100831.91;4994221;28;102236;-50
2022/07/08 06:13:11;;;;;;;6.07;5.57;;;;;;;22.17;70.73;100830.75;4985956;28;103902;-49
2022/07/08 06:15:39;;;;;;;6.68;6.18;;;;;;;22.17;70.79;100819.66;4995568;28;102104;-47
2022/07/08 06:18:05;;;;;;;6.65;6.05;;;;;;;22.18;70.68;100824.06;4992158;28;102157;-49
2022/07/08 06:20:32;;;;;;;6.10;5.70;;;;;;;22.20;70.51;100824.50;4998727;28;102442;-47
2022/07/08 06:22:59;;;;;;;7.03;6.53;;;;;;;22.26;70.70;100827.88;4995417;28;103798;-48
2022/07/08 06:25:27;;;;;;;6.72;6.22;;;;;;;22.23;70.52;100820.25;4995528;28;102402;-47
2022/07/08 06:27:53;;;;;;;6.40;5.95;;;;;;;22.23;70.40;100812.72;4996952;28;102429;-48
2022/07/08 06:30:20;;;;;;;7.40;6.70;;;;;;;22.25;70.58;100815.16;4997453;28;102227;-50
2022/07/08 06:32:46;;;;;;;7.13;6.53;;;;;;;22.26;70.54;100825.91;4991422;28;103896;-50
2022/07/08 06:35:13;;;;;;;6.85;6.00;;;;;;;22.24;70.34;100814.34;4998985;28;102493;-47
2022/07/08 06:37:39;;;;;;;7.00;6.43;;;;;;;22.24;70.57;100808.00;4983653;28;102517;-46
2022/07/08 06:40:07;;;;;;;7.38;6.78;;;;;;;22.27;70.52;100819.19;4998783;28;102318;-47
2022/07/08 06:42:35;;;;;;;6.35;5.75;;;;;;;22.26;70.43;100819.56;4997380;28;104015;-47
2022/07/08 06:45:01;;;;;;;7.07;6.47;;;;;;;22.25;70.39;100827.06;4979119;28;102343;-47
2022/07/08 06:47:28;;;;;;;6.45;5.85;;;;;;;22.26;70.54;100817.59;4995358;28;101922;-47
2022/07/08 06:49:55;;;;;;;6.68;6.07;;;;;;;22.27;70.42;100824.75;4999412;28;102212;-47
2022/07/08 06:52:22;;;;;;;7.05;6.45;;;;;;;22.27;70.63;100824.75;4997004;28;103791;-49
2022/07/08 06:54:48;;;;;;;7.03;6.43;;;;;;;22.27;70.46;100827.50;4998404;28;102242;-47
2022/07/08 06:57:15;;;;;;;7.32;6.63;;;;;;;22.28;70.26;100818.03;4998011;28;102351;-47
2022/07/08 06:59:43;;;;;;;6.68;6.13;;;;;;;22.27;70.51;100813.66;4998989;28;102524;-48
2022/07/08 07:02:12;;;;;;;6.97;6.28;;;;;;;22.30;70.43;100828.78;4989012;28;104011;-48
2022/07/08 07:04:39;;;;;;;7.05;6.35;;;;;;;22.28;70.49;100809.72;4994098;28;102162;-47
2022/07/08 07:07:05;;;;;;;7.70;6.65;;;;;;;22.30;70.51;100818.50;4994906;28;102205;-50
2022/07/08 07:09:32;;;;;;;6.78;6.18;;;;;;;22.33;69.97;100821.75;4993813;28;102437;-47
2022/07/08 07:11:59;;;;;;;7.35;6.65;;;;;;;22.33;70.42;100824.53;4984557;28;103856;-47
2022/07/08 07:14:26;;;;;;;7.47;6.88;;;;;;;22.30;70.38;100821.28;4998018;28;101952;-49
2022/07/08 07:16:55;;;;;;;7.40;6.70;;;;;;;22.30;70.44;100823.25;4997979;28;101988;-48
2022/07/08 07:19:22;;;;;;;7.22;6.63;;;;;;;22.30;70.19;100821.28;4982577;28;102461;-47
2022/07/08 07:21:49;;;;;;;7.10;6.50;;;;;;;22.31;70.65;100822.88;4970624;28;103980;-51
2022/07/08 07:24:17;;;;;;;7.22;6.57;;;;;;;22.31;70.40;100820.13;4985814;28;102169;-46
2022/07/08 07:26:44;;;;;;;7.85;7.10;;;;;;;22.33;70.24;100819.78;4984865;28;102157;-47
2022/07/08 07:29:10;;;;;;;7.75;6.97;;;;;;;22.35;70.37;100819.41;4982016;28;102453;-47
2022/07/08 07:31:37;;;;;;;7.57;6.88;;;;;;;22.38;70.16;100818.72;4986319;28;103813;-48
2022/07/08 07:34:06;;;;;;;7.82;7.18;;;;;;;22.35;70.38;100802.78;4989957;28;102579;-48
2022/07/08 07:36:33;;;;;;;8.10;7.40;;;;;;;22.37;70.24;100817.13;4997098;28;102251;-47
2022/07/08 07:39:00;;;;;;;7.55;6.95;;;;;;;22.36;70.10;100816.31;4998867;28;102377;-47
2022/07/08 07:41:27;;;;;;;7.90;7.20;;;;;;;22.37;70.11;100812.38;4997745;28;103671;-48
2022/07/08 07:43:53;;;;;;;7.47;6.78;;;;;;;22.40;70.36;100805.34;4997950;28;102271;-47
2022/07/08 07:46:20;;;;;;;7.60;6.90;;;;;;;22.39;70.27;100803.69;4996880;28;102344;-48
2022/07/08 07:48:49;;;;;;;7.40;6.80;;;;;;;22.41;70.13;100806.94;4998788;28;102098;-47
2022/07/08 07:51:17;;;;;;;7.28;6.68;;;;;;;22.43;70.26;100807.38;4997193;28;103896;-47
2022/07/08 07:53:44;;;;;;;8.23;7.53;;;;;;;22.41;70.36;100806.94;4997284;28;101946;-47
2022/07/08 07:56:10;;;;;;;7.95;7.32;;;;;;;22.39;70.10;100812.00;4997042;28;102079;-47
2022/07/08 07:58:38;;;;;;;7.70;7.07;;;;;;;22.40;70.22;100813.66;4998230;28;102239;-48
2022/07/08 08:01:06;;;;;;;7.53;6.90;;;;;;;22.41;70.12;100806.94;4996442;28;104057;-47
2022/07/08 08:03:32;;;;;;;7.15;6.55;;;;;;;22.38;70.22;100811.22;4997455;28;102341;-47
2022/07/08 08:06:00;;;;;;;8.02;7.32;;;;;;;22.39;70.22;100803.69;4996424;28;102368;-47
2022/07/08 08:08:31;;;;;;;8.10;7.38;;;;;;;22.39;70.17;100806.47;4984195;28;102629;-48
2022/07/08 08:10:58;;;;;;;7.90;7.20;;;;;;;22.41;70.19;100812.50;4976709;28;103927;-46
2022/07/08 08:13:25;;;;;;;8.75;7.95;;;;;;;22.41;70.12;100806.94;4978007;28;102387;-47
2022/07/08 08:15:52;;;;;;;8.63;7.93;;;;;;;22.41;70.23;100806.94;4977196;28;102241;-47
2022/07/08 08:18:20;;;;;;;8.00;7.22;;;;;;;22.44;70.19;100806.25;4988250;28;102193;-47
2022/07/08 08:20:47;;;;;;;8.82;8.02;;;;;;;22.43;70.17;100804.59;5008810;28;104152;-46
2022/07/08 08:23:14;;;;;;;8.25;7.55;;;;;;;22.41;70.33;100796.66;4999213;28;102248;-47
2022/07/08 08:25:42;;;;;;;8.50;7.80;;;;;;;22.41;70.10;100801.41;4984007;28;102314;-48
2022/07/08 08:28:09;;;;;;;8.55;7.82;;;;;;;22.42;70.24;100791.91;5006194;28;102393;-50
2022/07/08 08:30:36;;;;;;;8.55;7.60;;;;;;;22.42;70.06;100797.47;5009299;28;103927;-46
2022/07/08 08:33:02;;;;;;;8.15;7.45;;;;;;;22.45;70.04;100791.22;4996553;28;102278;-49
2022/07/08 08:35:29;;;;;;;8.68;7.88;;;;;;;22.44;70.26;100792.38;4997047;28;102113;-50
2022/07/08 08:37:56;;;;;;;8.45;7.68;;;;;;;22.42;70.17;100780.81;4997581;28;102190;-49
2022/07/08 08:40:24;;;;;;;8.30;7.60;;;;;;;22.43;70.24;100782.44;4976108;28;104103;-48
2022/07/08 08:42:53;;;;;;;9.05;8.15;;;;;;;22.43;70.23;100765.78;4975320;28;102280;-49
2022/07/08 08:45:20;;;;;;;8.60;7.82;;;;;;;22.43;70.12;100765.78;5001701;28;101964;-48
2022/07/08 08:47:49;;;;;;;9.00;8.10;;;;;;;22.46;70.07;100776.19;4988483;28;102106;-48
2022/07/08 08:53:03;;;;;;;9.50;8.60;;;;;;;22.43;70.29;100760.25;4997180;28;102787;-47
2022/07/08 08:55:31;;;;;;;8.87;8.13;;;;;;;22.42;70.15;100776.06;4975650;28;102714;-47
2022/07/08 08:58:00;;;;;;;;;;;;;;;22.42;70.25;100773.31;4990441;28;102221;-47
2022/07/08 09:00:27;;;;;;;11.35;8.77;;;;;;;22.42;70.15;100769.72;4989792;28;104140;-47
2022/07/08 09:02:55;;;;;;;9.13;8.32;;;;;;;22.44;70.19;100772.97;4989510;28;102111;-50
2022/07/08 09:05:23;;;;;;;14.52;8.82;;;;;;;22.45;70.17;100774.56;4993786;28;102043;-47
2022/07/08 09:07:52;;;;;;;9.77;8.88;;;;;;;22.44;70.10;100773.78;4993189;28;102213;-47
2022/07/08 09:10:19;;;;;;;8.98;8.10;;;;;;;22.42;70.06;100753.09;4974959;28;103846;-48
2022/07/08 09:13:19;;;;;;;8.77;7.97;;;;;;;22.43;70.02;100755.53;4976203;28;102027;-47
2022/07/08 09:15:51;;;;;;;10.07;9.10;;;;;;;22.41;70.30;100757.03;4933995;28;102150;-49
2022/07/08 09:18:19;;;;;;;9.48;8.52;;;;;;;22.40;70.49;100759.00;4969102;28;102603;-48
2022/07/08 09:20:47;;;;;;;9.23;8.48;;;;;;;22.42;70.19;100758.63;4975468;28;104045;-51
2022/07/08 09:23:15;;;;;;;9.93;9.07;;;;;;;22.40;70.04;100750.69;4989489;28;102252;-50
2022/07/08 09:25:46;;;;;;;10.40;9.30;;;;;;;22.42;70.11;100744.78;4981155;28;102309;-50
2022/07/08 09:28:13;;;;;;;9.00;8.20;;;;;;;22.43;70.37;100749.16;4989204;28;102143;-50
2022/07/08 09:30:42;;;;;;;9.82;8.82;;;;;;;22.41;70.09;100751.47;4992017;28;103431;-49
2022/07/08 09:33:12;;;;;;;9.32;8.52;;;;;;;22.42;70.24;100755.88;4988735;28;103159;-48
2022/07/08 09:35:40;;;;;;;9.45;8.60;;;;;;;22.42;70.25;100753.09;4988122;28;102142;-50
2022/07/08 09:38:07;;;;;;;9.45;8.68;;;;;;;22.41;70.17;100745.94;4990528;28;102855;-49
2022/07/08 09:40:35;;;;;;;9.70;8.80;;;;;;;22.42;70.15;100739.22;4988946;28;103857;-49
2022/07/08 09:43:02;;;;;;;9.82;8.93;;;;;;;22.41;70.09;100745.94;4994646;28;101934;-49
2022/07/08 09:45:31;;;;;;;9.52;8.73;;;;;;;22.41;70.08;100754.25;4995182;28;102324;-47
2022/07/08 09:48:04;;;;;;;10.00;9.10;;;;;;;22.41;70.17;100737.63;4997078;28;102130;-48
2022/07/08 09:50:39;;;;;;;9.27;8.48;;;;;;;22.40;70.22;100736.81;4994966;28;104122;-47
2022/07/08 09:53:15;;;;;;;9.90;9.00;;;;;;;22.39;70.38;100742.69;4995296;28;102267;-49
2022/07/08 09:55:43;;;;;;;9.88;8.98;;;;;;;22.41;70.32;100734.84;4994250;28;102213;-49
2022/07/08 09:58:13;;;;;;;9.20;8.45;;;;;;;22.41;70.14;100751.47;4996301;28;102223;-47
2022/07/08 10:00:40;;;;;;;;;;;;;;;22.38;70.04;100738.31;4990296;28;104178;-47
2022/07/08 10:03:08;;;;;;;10.23;9.10;;;;;;;22.35;70.40;100737.03;4995526;28;102315;-49
2022/07/08 10:05:34;;;;;;;10.00;9.10;;;;;;;22.37;70.29;100734.75;4995582;28;102595;-47
2022/07/08 10:08:02;;;;;;;9.30;8.48;;;;;;;22.38;70.08;100741.88;4996518;28;102247;-47
2022/07/08 10:10:29;;;;;;;10.02;9.05;;;;;;;22.38;70.27;100732.78;4989686;28;103920;-48
2022/07/08 10:12:58;;;;;;;10.40;9.30;;;;;;;22.34;70.50;100729.09;4975555;28;101966;-50
2022/07/08 10:15:25;;;;;;;;;;;;;;;22.37;70.21;100734.75;4975763;28;102229;-50
2022/07/08 10:17:53;;;;;;;9.98;9.15;;;;;;;22.34;70.36;100718.81;4992643;28;102148;-48
2022/07/08 10:20:24;;;;;;;9.50;8.70;;;;;;;22.36;70.29;100718.44;4994741;28;103978;-47
2022/07/08 10:22:56;;;;;;;9.80;9.00;;;;;;;22.35;70.46;100720.41;4995477;28;102296;-48
2022/07/08 10:25:25;;;;;;;9.93;9.02;;;;;;;22.33;70.32;100713.63;4993724;28;102142;-47
2022/07/08 10:27:51;;;;;;;9.55;8.75;;;;;;;22.33;70.30;100711.66;4994037;28;102260;-46
2022/07/08 10:30:20;;;;;;;10.13;9.23;;;;;;;22.33;70.52;100705.31;4994437;28;103870;-49
2022/07/08 10:32:48;;;;;;;10.70;9.80;;;;;;;22.34;70.36;100706.91;4989182;28;103558;-46
2022/07/08 10:35:18;;;;;;;9.98;9.07;;;;;;;22.35;70.40;100709.31;4992070;28;102248;-47
2022/07/08 10:37:48;;;;;;;10.13;9.23;;;;;;;22.35;70.32;100708.50;4991648;28;102228;-47
2022/07/08 10:40:56;;;;;;;10.38;9.05;;;;;;;22.36;70.38;100707.34;4974661;28;103964;-49
2022/07/08 10:43:26;;;;;;;9.73;8.82;;;;;;;22.34;70.35;100706.91;4948335;28;103386;-50
2022/07/08 10:46:04;;;;;;;10.88;9.82;;;;;;;22.34;70.35;100696.63;4989335;28;102632;-47
2022/07/08 10:48:47;;;;;;;10.57;9.68;;;;;;;22.34;70.46;100695.81;4990803;28;102197;-48
2022/07/08 10:51:45;;;;;;;9.80;8.95;;;;;;;22.34;70.29;100701.38;4993932;28;103996;-48
2022/07/08 10:54:27;;;;;;;10.13;9.23;;;;;;;22.33;70.45;100688.66;4996443;28;102953;-46
2022/07/08 10:56:58;;;;;;;10.35;9.35;;;;;;;22.33;70.29;100697.78;4993240;28;102451;-46
2022/07/08 10:59:26;;;;;;;10.43;8.80;;;;;;;22.36;70.26;100699.03;4997596;28;102401;-46
2022/07/08 11:01:55;;;;;;;10.35;9.48;;;;;;;22.35;70.47;100689.91;5003621;28;104039;-46
2022/07/08 11:04:27;;;;;;;12.40;10.02;;;;;;;22.33;70.50;100694.22;4986653;28;102318;-47
2022/07/08 11:06:55;;;;;;;10.07;9.23;;;;;;;22.31;70.47;100683.47;4991372;28;102371;-48
2022/07/08 11:09:23;;;;;;;10.70;9.80;;;;;;;22.29;70.22;100678.28;4977258;28;102410;-47
2022/07/08 11:11:53;;;;;;;10.07;9.18;;;;;;;22.28;70.36;100684.97;4990022;28;103870;-47
2022/07/08 11:14:20;;;;;;;10.65;9.75;;;;;;;22.28;70.49;100682.19;4999740;28;102570;-48
2022/07/08 11:16:46;;;;;;;10.18;9.27;;;;;;;22.29;70.16;100686.59;4996945;28;102223;-49
2022/07/08 11:19:13;;;;;;;10.07;9.18;;;;;;;22.27;70.50;100675.03;4986301;28;102199;-47
2022/07/08 11:21:39;;;;;;;9.70;8.90;;;;;;;22.27;70.33;100671.47;4983882;28;104076;-50
2022/07/08 11:24:06;;;;;;;10.80;9.80;;;;;;;22.28;70.43;100671.09;4993665;28;102077;-49
2022/07/08 11:26:33;;;;;;;10.35;9.43;;;;;;;22.27;70.22;100668.69;4996033;28;102295;-48